createdAt,value
2023-01-30T00:01:17.939Z,17.50
2023-01-30T00:03:46.484Z,16.35
2023-01-30T00:06:16.506Z,17.05
2023-01-30T00:08:44.865Z,16.92
2023-01-30T00:11:14.733Z,17.30
2023-01-30T00:13:43.546Z,16.17
2023-01-30T00:16:12.390Z,16.10
2023-01-30T00:18:41.748Z,16.65
2023-01-30T00:21:11.584Z,15.65
2023-01-30T00:23:41.367Z,15.80
2023-01-30T00:26:10.827Z,16.55
2023-01-30T00:28:39.723Z,16.27
2023-01-30T00:31:08.927Z,16.33
2023-01-30T00:33:38.188Z,15.77
2023-01-30T00:36:07.671Z,16.70
2023-01-30T00:38:35.901Z,15.52
2023-01-30T00:41:06.263Z,15.52
2023-01-30T00:43:51.935Z,14.80
2023-01-30T00:46:45.789Z,13.75
2023-01-30T00:49:14.021Z,14.18
2023-01-30T00:51:42.594Z,14.52
2023-01-30T00:54:11.080Z,14.32
2023-01-30T00:56:40.984Z,14.77
2023-01-30T00:59:09.242Z,14.88
2023-01-30T01:01:38.891Z,14.43
2023-01-30T01:04:08.951Z,14.63
2023-01-30T01:06:37.521Z,14.80
2023-01-30T01:09:06.075Z,13.48
2023-01-30T01:11:34.567Z,13.07
2023-01-30T01:14:05.619Z,12.45
2023-01-30T01:16:35.240Z,13.00
2023-01-30T01:19:03.967Z,12.82
2023-01-30T01:21:32.594Z,12.25
2023-01-30T01:24:01.639Z,13.05
2023-01-30T01:26:30.269Z,13.43
2023-01-30T01:28:59.100Z,13.15
2023-01-30T01:31:29.364Z,12.13
2023-01-30T01:33:57.907Z,12.70
2023-01-30T01:36:52.057Z,12.98
2023-01-30T01:39:15.056Z,12.90
2023-01-30T01:41:42.681Z,13.60
2023-01-30T01:44:12.392Z,13.38
2023-01-30T01:46:45.453Z,13.63
2023-01-30T01:49:16.895Z,12.50
2023-01-30T01:51:50.967Z,12.60
2023-01-30T01:54:22.347Z,12.77
2023-01-30T01:56:51.251Z,13.20
2023-01-30T01:59:24.006Z,11.63
2023-01-30T02:01:55.225Z,13.35
2023-01-30T02:04:48.036Z,13.25
2023-01-30T02:07:18.540Z,11.88
2023-01-30T02:09:46.795Z,11.53
2023-01-30T02:12:16.193Z,12.93
2023-01-30T02:14:45.032Z,12.45
2023-01-30T02:17:14.869Z,12.13
2023-01-30T02:19:48.855Z,11.48
2023-01-30T02:22:43.642Z,11.57
2023-01-30T02:25:31.714Z,12.70
2023-01-30T02:28:23.870Z,11.93
2023-01-30T02:31:14.166Z,12.45
2023-01-30T02:33:50.287Z,11.48
2023-01-30T02:36:24.799Z,12.13
2023-01-30T02:38:58.935Z,11.65
2023-01-30T02:41:32.555Z,12.02
2023-01-30T02:44:06.025Z,11.38
2023-01-30T02:46:40.881Z,10.95
2023-01-30T02:49:14.678Z,10.32
2023-01-30T02:51:44.048Z,11.52
2023-01-30T02:54:14.141Z,11.65
2023-01-30T02:56:47.893Z,10.48
2023-01-30T02:59:19.009Z,10.85
2023-01-30T03:02:15.407Z,10.45
2023-01-30T03:04:58.835Z,10.82
2023-01-30T03:07:36.310Z,11.73
2023-01-30T03:10:08.948Z,10.75
2023-01-30T03:12:44.438Z,10.52
2023-01-30T03:15:16.666Z,10.30
2023-01-30T03:17:48.014Z,10.52
2023-01-30T03:20:18.263Z,10.93
2023-01-30T03:22:46.469Z,9.85
2023-01-30T03:25:19.557Z,9.45
2023-01-30T03:27:48.153Z,10.07
2023-01-30T03:30:17.216Z,10.23
2023-01-30T03:32:46.775Z,10.52
2023-01-30T03:35:17.989Z,10.02
2023-01-30T03:40:16.390Z,9.95
2023-01-30T03:42:44.628Z,9.88
2023-01-30T03:45:13.617Z,9.80
2023-01-30T03:47:41.782Z,9.02
2023-01-30T03:50:12.628Z,10.30
2023-01-30T03:52:40.921Z,9.68
2023-01-30T03:55:10.206Z,9.52
2023-01-30T03:57:38.399Z,9.60
2023-01-30T04:00:07.915Z,9.93
2023-01-30T04:02:36.103Z,10.57
2023-01-30T04:05:04.811Z,11.10
2023-01-30T04:07:34.348Z,9.05
2023-01-30T04:10:03.036Z,9.80
2023-01-30T04:12:31.197Z,9.18
2023-01-30T04:14:59.749Z,9.45
2023-01-30T04:17:27.892Z,9.63
2023-01-30T04:19:56.414Z,9.85
2023-01-30T04:22:24.589Z,10.13
2023-01-30T04:24:54.493Z,9.18
2023-01-30T04:27:22.750Z,9.57
2023-01-30T04:29:51.161Z,9.32
2023-01-30T04:32:19.328Z,9.75
2023-01-30T04:34:47.754Z,9.27
2023-01-30T04:37:15.941Z,9.68
2023-01-30T04:39:44.360Z,10.32
2023-01-30T04:42:14.153Z,10.18
2023-01-30T04:44:42.621Z,10.13
2023-01-30T04:47:10.996Z,9.85
2023-01-30T04:49:39.483Z,10.10
2023-01-30T04:52:07.685Z,10.27
2023-01-30T04:54:36.183Z,10.13
2023-01-30T04:57:04.480Z,10.23
2023-01-30T04:59:34.556Z,10.57
2023-01-30T05:02:02.825Z,10.65
2023-01-30T05:04:31.400Z,10.90
2023-01-30T05:06:59.574Z,11.25
2023-01-30T05:09:28.091Z,10.90
2023-01-30T05:11:56.267Z,9.88
2023-01-30T05:14:24.724Z,10.10
2023-01-30T05:16:54.360Z,10.20
2023-01-30T05:19:22.972Z,11.20
2023-01-30T05:21:51.143Z,10.30
2023-01-30T05:24:19.718Z,10.32
2023-01-30T05:26:48.031Z,11.35
2023-01-30T05:29:16.507Z,11.98
2023-01-30T05:31:44.772Z,12.25
2023-01-30T05:34:14.701Z,10.48
2023-01-30T05:36:42.901Z,11.13
2023-01-30T05:39:11.391Z,10.90
2023-01-30T05:41:39.680Z,11.02
2023-01-30T05:44:08.250Z,10.98
2023-01-30T05:46:36.483Z,11.95
2023-01-30T05:49:05.266Z,11.55
2023-01-30T05:51:35.180Z,10.82
2023-01-30T05:54:03.659Z,10.90
2023-01-30T05:56:33.353Z,11.23
2023-01-30T05:59:02.963Z,11.77
2023-01-30T06:01:31.726Z,11.23
2023-01-30T06:04:00.547Z,11.35
2023-01-30T06:06:28.832Z,11.88
2023-01-30T06:08:59.068Z,12.02
2023-01-30T06:11:27.238Z,11.63
2023-01-30T06:13:55.941Z,11.93
2023-01-30T06:16:24.211Z,11.55
2023-01-30T06:18:52.858Z,11.98
2023-01-30T06:21:21.003Z,11.73
2023-01-30T06:23:49.657Z,12.07
2023-01-30T06:26:19.268Z,11.98
2023-01-30T06:28:48.471Z,11.48
2023-01-30T06:31:16.924Z,11.57
2023-01-30T06:33:45.468Z,13.18
2023-01-30T06:36:13.667Z,12.95
2023-01-30T06:38:42.331Z,11.88
2023-01-30T06:41:10.639Z,12.45
2023-01-30T06:43:40.458Z,12.63
2023-01-30T06:46:08.644Z,11.90
2023-01-30T06:48:37.088Z,12.45
2023-01-30T06:51:05.529Z,13.38
2023-01-30T06:53:34.290Z,12.43
2023-01-30T06:56:03.288Z,12.48
2023-01-30T06:58:31.804Z,11.95
2023-01-30T07:01:02.544Z,12.15
2023-01-30T07:03:31.016Z,13.25
2023-01-30T07:05:59.304Z,11.88
2023-01-30T07:08:27.949Z,12.15
2023-01-30T07:10:56.235Z,12.23
2023-01-30T07:13:24.761Z,12.88
2023-01-30T07:15:53.003Z,11.63
2023-01-30T07:18:22.863Z,12.73
2023-01-30T07:20:51.570Z,12.63
2023-01-30T07:23:20.029Z,12.20
2023-01-30T07:25:48.215Z,12.45
2023-01-30T07:28:16.698Z,12.88
2023-01-30T07:30:44.965Z,12.35
2023-01-30T07:33:13.672Z,12.25
2023-01-30T07:35:43.234Z,12.57
2023-01-30T07:38:11.714Z,13.02
2023-01-30T07:40:40.199Z,12.20
2023-01-30T07:43:10.933Z,12.93
2023-01-30T07:45:40.819Z,12.45
2023-01-30T07:48:10.038Z,13.77
2023-01-30T07:50:38.392Z,15.23
2023-01-30T07:53:10.912Z,14.02
2023-01-30T07:55:39.528Z,13.15
2023-01-30T07:58:08.237Z,14.52
2023-01-30T08:00:36.466Z,13.32
2023-01-30T08:03:05.278Z,13.75
2023-01-30T08:05:34.093Z,13.20
2023-01-30T08:08:02.596Z,13.70
2023-01-30T08:10:32.160Z,12.32
2023-01-30T08:13:00.661Z,12.40
2023-01-30T08:15:31.625Z,15.20
2023-01-30T08:20:28.937Z,13.27
2023-01-30T08:22:57.524Z,15.02
2023-01-30T08:25:25.850Z,12.80
2023-01-30T08:27:56.207Z,12.75
2023-01-30T08:30:24.660Z,13.73
2023-01-30T08:32:53.330Z,13.25
2023-01-30T08:35:21.555Z,13.77
2023-01-30T08:37:50.276Z,12.45
2023-01-30T08:40:19.168Z,11.55
2023-01-30T08:42:47.896Z,12.70
2023-01-30T08:45:17.591Z,14.20
2023-01-30T08:47:46.161Z,12.95
2023-01-30T08:50:14.412Z,11.90
2023-01-30T08:52:42.953Z,12.90
2023-01-30T08:55:11.870Z,13.60
2023-01-30T08:57:40.895Z,13.43
2023-01-30T09:00:10.342Z,12.02
2023-01-30T09:02:40.808Z,12.13
2023-01-30T09:05:11.186Z,12.27
2023-01-30T09:07:39.781Z,12.05
2023-01-30T09:10:08.451Z,10.88
2023-01-30T09:12:36.921Z,13.13
2023-01-30T09:15:06.018Z,12.35
2023-01-30T09:17:34.653Z,11.95
2023-01-30T09:20:04.294Z,12.93
2023-01-30T09:22:32.826Z,13.70
2023-01-30T09:25:01.020Z,12.35
2023-01-30T09:27:29.677Z,12.77
2023-01-30T09:29:57.872Z,12.35
2023-01-30T09:32:26.413Z,13.38
2023-01-30T09:34:54.643Z,12.73
2023-01-30T09:37:24.654Z,13.45
2023-01-30T09:39:52.968Z,13.77
2023-01-30T09:42:45.490Z,13.02
2023-01-30T09:45:23.722Z,13.05
2023-01-30T09:48:01.770Z,13.07
2023-01-30T09:51:12.436Z,13.05
2023-01-30T09:54:01.263Z,12.93
2023-01-30T09:56:29.532Z,13.75
2023-01-30T09:59:00.027Z,12.13
2023-01-30T10:01:32.786Z,12.40
2023-01-30T10:04:11.327Z,11.98
2023-01-30T10:06:47.245Z,13.10
2023-01-30T10:09:19.768Z,14.45
2023-01-30T10:11:58.103Z,14.88
2023-01-30T10:14:45.454Z,14.05
2023-01-30T10:17:29.071Z,14.85
2023-01-30T10:20:08.142Z,14.68
2023-01-30T10:22:44.043Z,15.23
2023-01-30T10:25:22.072Z,15.00
2023-01-30T10:27:53.813Z,15.23
2023-01-30T10:30:22.948Z,16.35
2023-01-30T10:32:55.886Z,16.02
2023-01-30T10:35:27.322Z,14.38
2023-01-30T10:38:01.422Z,15.25
2023-01-30T10:40:36.905Z,14.60
2023-01-30T10:43:11.624Z,15.15
2023-01-30T10:45:44.822Z,14.70
2023-01-30T10:48:42.471Z,14.98
2023-01-30T10:51:19.976Z,15.27
2023-01-30T10:53:51.602Z,14.38
2023-01-30T10:56:24.125Z,14.38
2023-01-30T10:58:56.200Z,15.15
2023-01-30T11:01:26.960Z,15.50
2023-01-30T11:03:58.401Z,15.43
2023-01-30T11:06:27.353Z,14.50
2023-01-30T11:08:57.390Z,14.18
2023-01-30T11:11:31.707Z,15.37
2023-01-30T11:14:04.331Z,13.95
2023-01-30T11:16:33.442Z,14.60
2023-01-30T11:19:19.416Z,13.77
2023-01-30T11:21:51.641Z,14.82
2023-01-30T11:24:21.908Z,13.23
2023-01-30T11:26:53.451Z,14.82
2023-01-30T11:31:58.118Z,14.95
2023-01-30T11:34:26.503Z,16.75
2023-01-30T11:36:55.002Z,13.57
2023-01-30T11:39:25.335Z,14.20
2023-01-30T11:42:04.754Z,14.48
2023-01-30T11:44:35.079Z,13.70
2023-01-30T11:47:08.626Z,13.57
2023-01-30T11:49:45.614Z,16.42
2023-01-30T11:52:18.732Z,17.88
2023-01-30T11:54:48.140Z,15.38
2023-01-30T11:57:19.612Z,15.50
2023-01-30T12:02:21.211Z,14.38
2023-01-30T12:04:54.112Z,14.65
2023-01-30T12:07:24.732Z,15.27
2023-01-30T12:09:54.289Z,15.60
2023-01-30T12:12:35.391Z,15.00
2023-01-30T12:15:16.283Z,16.23
2023-01-30T12:17:48.722Z,13.85
2023-01-30T12:20:25.809Z,14.60
2023-01-30T12:23:03.019Z,14.65
2023-01-30T12:25:35.825Z,15.10
2023-01-30T12:28:13.821Z,15.05
2023-01-30T12:30:45.778Z,15.00
2023-01-30T12:36:11.278Z,15.45
2023-01-30T12:38:50.565Z,16.48
2023-01-30T12:41:29.809Z,18.08
2023-01-30T12:44:15.045Z,16.73
2023-01-30T12:46:52.551Z,18.00
2023-01-30T12:49:36.157Z,17.05
2023-01-30T12:52:18.007Z,20.65
2023-01-30T12:54:55.294Z,21.40
2023-01-30T12:57:29.990Z,17.90
2023-01-30T13:00:09.372Z,16.45
2023-01-30T13:02:59.779Z,18.08
2023-01-30T13:05:37.579Z,18.50
2023-01-30T13:08:16.203Z,19.63
2023-01-30T13:10:47.984Z,18.42
2023-01-30T13:13:21.078Z,16.17
2023-01-30T13:15:56.920Z,18.25
2023-01-30T13:18:28.184Z,16.85
2023-01-30T13:21:02.281Z,16.38
2023-01-30T13:23:40.570Z,17.88
2023-01-30T13:26:10.589Z,17.05
2023-01-30T13:28:41.164Z,18.25
2023-01-30T13:31:12.637Z,16.55
2023-01-30T13:36:16.262Z,15.38
2023-01-30T13:38:51.438Z,16.70
2023-01-30T13:41:20.352Z,15.35
2023-01-30T13:43:51.982Z,14.85
2023-01-30T13:46:25.957Z,15.25
2023-01-30T13:49:02.442Z,15.13
2023-01-30T13:51:43.007Z,15.20
2023-01-30T13:54:20.695Z,15.30
2023-01-30T13:56:52.400Z,15.88
2023-01-30T13:59:30.302Z,20.08
2023-01-30T14:02:19.919Z,17.20
2023-01-30T14:04:50.878Z,16.75
2023-01-30T14:10:17.962Z,19.50
2023-01-30T14:12:48.099Z,16.02
2023-01-30T14:15:34.213Z,16.00
2023-01-30T14:18:07.556Z,14.90
2023-01-30T14:20:37.435Z,15.90
2023-01-30T14:23:06.990Z,17.70
2023-01-30T14:25:45.268Z,15.88
2023-01-30T14:28:54.732Z,16.40
2023-01-30T14:31:53.600Z,16.08
2023-01-30T14:34:51.601Z,16.10
2023-01-30T14:37:48.312Z,16.83
2023-01-30T14:40:35.769Z,16.48
2023-01-30T14:43:49.690Z,14.35
2023-01-30T14:46:54.365Z,15.15
2023-01-30T14:49:38.143Z,17.33
2023-01-30T14:52:26.895Z,17.05
2023-01-30T14:54:55.656Z,16.42
2023-01-30T14:57:27.705Z,18.88
2023-01-30T15:02:51.075Z,16.15
2023-01-30T15:05:21.547Z,16.85
2023-01-30T15:10:28.072Z,15.70
2023-01-30T15:13:24.142Z,13.73
2023-01-30T15:16:01.949Z,15.38
2023-01-30T15:18:48.184Z,16.08
2023-01-30T15:21:37.520Z,15.10
2023-01-30T15:24:26.386Z,15.85
2023-01-30T15:27:03.424Z,16.45
2023-01-30T15:30:01.631Z,14.52
2023-01-30T15:32:31.404Z,15.90
2023-01-30T15:35:02.376Z,16.13
2023-01-30T15:37:35.011Z,14.88
2023-01-30T15:40:20.633Z,16.20
2023-01-30T15:42:51.056Z,15.02
2023-01-30T15:45:29.611Z,15.40
2023-01-30T15:48:20.598Z,17.73
2023-01-30T15:50:50.263Z,18.83
2023-01-30T15:53:19.009Z,17.88
2023-01-30T15:55:48.963Z,20.33
2023-01-30T15:58:19.872Z,19.00
2023-01-30T16:00:50.513Z,20.17
2023-01-30T16:03:21.658Z,19.20
2023-01-30T16:08:23.980Z,17.70
2023-01-30T16:10:54.235Z,18.80
2023-01-30T16:13:23.954Z,19.30
2023-01-30T16:15:56.249Z,18.33
2023-01-30T16:18:31.193Z,20.70
2023-01-30T16:21:04.448Z,19.55
2023-01-30T16:23:36.781Z,19.38
2023-01-30T16:26:09.110Z,20.90
2023-01-30T16:28:37.446Z,23.48
2023-01-30T16:31:07.528Z,18.95
2023-01-30T16:33:37.159Z,17.88
2023-01-30T16:36:07.987Z,22.75
2023-01-30T16:38:43.170Z,19.67
2023-01-30T16:41:31.080Z,16.60
2023-01-30T16:44:18.804Z,17.00
2023-01-30T16:46:53.792Z,16.95
2023-01-30T16:49:23.999Z,15.02
2023-01-30T16:52:01.308Z,15.80
2023-01-30T16:54:31.546Z,17.17
2023-01-30T16:57:02.670Z,16.90
2023-01-30T16:59:32.857Z,18.48
2023-01-30T17:02:03.996Z,18.45
2023-01-30T17:04:36.085Z,18.42
2023-01-30T17:07:06.194Z,18.98
2023-01-30T17:09:46.226Z,17.42
2023-01-30T17:12:45.398Z,21.02
2023-01-30T17:15:36.603Z,18.67
2023-01-30T17:18:05.639Z,18.27
2023-01-30T17:20:39.328Z,32.25
2023-01-30T17:23:10.911Z,20.67
2023-01-30T17:25:41.987Z,25.80
2023-01-30T17:30:40.978Z,18.88
2023-01-30T17:33:12.119Z,19.73
2023-01-30T17:35:40.670Z,20.90
2023-01-30T17:38:10.022Z,18.88
2023-01-30T17:40:39.435Z,19.42
2023-01-30T17:43:09.627Z,19.38
2023-01-30T17:45:39.441Z,20.40
2023-01-30T17:48:08.647Z,20.55
2023-01-30T17:50:37.624Z,20.90
2023-01-30T17:53:06.449Z,16.95
2023-01-30T17:55:35.873Z,18.15
2023-01-30T17:58:05.279Z,18.10
2023-01-30T18:00:33.634Z,19.52
2023-01-30T18:03:03.832Z,18.40
2023-01-30T18:05:32.194Z,17.08
2023-01-30T18:08:02.698Z,16.95
2023-01-30T18:10:31.094Z,20.58
2023-01-30T18:12:59.763Z,20.48
2023-01-30T18:15:28.449Z,18.48
2023-01-30T18:17:57.078Z,17.92
2023-01-30T18:20:26.926Z,19.85
2023-01-30T18:22:55.605Z,16.80
2023-01-30T18:25:23.954Z,17.10
2023-01-30T18:27:52.719Z,18.08
2023-01-30T18:30:24.491Z,22.33
2023-01-30T18:32:54.109Z,16.05
2023-01-30T18:35:23.402Z,21.63
2023-01-30T18:37:53.596Z,18.83
2023-01-30T18:40:22.739Z,17.75
2023-01-30T18:42:51.497Z,17.83
2023-01-30T18:45:19.929Z,19.38
2023-01-30T18:47:48.627Z,16.45
2023-01-30T18:50:17.833Z,15.60
2023-01-30T18:52:47.513Z,16.00
2023-01-30T18:55:17.332Z,15.05
2023-01-30T18:57:45.936Z,15.68
2023-01-30T19:00:16.595Z,14.80
2023-01-30T19:02:46.395Z,15.57
2023-01-30T19:05:14.787Z,17.60
2023-01-30T19:07:43.375Z,16.23
2023-01-30T19:10:17.331Z,15.35
2023-01-30T19:13:05.271Z,16.45
2023-01-30T19:15:36.417Z,13.95
2023-01-30T19:18:05.150Z,13.18
2023-01-30T19:20:33.459Z,13.73
2023-01-30T19:23:01.930Z,14.13
2023-01-30T19:25:30.491Z,15.73
2023-01-30T19:28:00.525Z,15.15
2023-01-30T19:30:29.596Z,15.93
2023-01-30T19:32:59.323Z,15.80
2023-01-30T19:35:27.824Z,17.55
2023-01-30T19:38:00.425Z,16.92
2023-01-30T19:40:28.992Z,16.55
2023-01-30T19:43:05.747Z,17.77
2023-01-30T19:45:40.390Z,15.82
2023-01-30T19:48:10.614Z,15.10
2023-01-30T19:50:39.101Z,13.05
2023-01-30T19:53:08.151Z,12.80
2023-01-30T19:55:38.269Z,11.40
2023-01-30T19:58:07.635Z,10.25
2023-01-30T20:00:36.221Z,11.00
2023-01-30T20:03:06.240Z,11.50
2023-01-30T20:05:34.565Z,11.02
2023-01-30T20:08:03.564Z,11.00
2023-01-30T20:10:33.074Z,11.50
2023-01-30T20:13:02.363Z,11.70
2023-01-30T20:15:31.061Z,12.15
2023-01-30T20:17:59.604Z,11.75
2023-01-30T20:20:30.609Z,11.25
2023-01-30T20:23:01.116Z,10.60
2023-01-30T20:25:30.078Z,9.02
2023-01-30T20:27:58.712Z,7.57
2023-01-30T20:30:26.970Z,6.82
2023-01-30T20:32:55.895Z,6.25
2023-01-30T20:35:24.173Z,6.82
2023-01-30T20:37:54.427Z,5.72
2023-01-30T20:40:22.725Z,5.05
2023-01-30T20:42:51.608Z,4.75
2023-01-30T20:45:19.982Z,4.68
2023-01-30T20:47:48.686Z,4.18
2023-01-30T20:50:18.189Z,4.53
2023-01-30T20:52:51.578Z,4.65
2023-01-30T20:55:21.564Z,4.03
2023-01-30T20:57:50.458Z,4.43
2023-01-30T21:00:20.256Z,5.22
2023-01-30T21:02:52.343Z,5.45
2023-01-30T21:05:21.103Z,5.13
2023-01-30T21:07:49.887Z,4.07
2023-01-30T21:10:18.545Z,6.45
2023-01-30T21:12:48.372Z,5.10
2023-01-30T21:15:17.033Z,5.97
2023-01-30T21:17:47.619Z,5.65
2023-01-30T21:20:16.356Z,6.97
2023-01-30T21:22:44.858Z,8.05
2023-01-30T21:25:13.281Z,8.65
2023-01-30T21:27:41.831Z,8.43
2023-01-30T21:30:12.894Z,10.25
2023-01-30T21:32:41.439Z,7.03
2023-01-30T21:35:10.312Z,6.03
2023-01-30T21:37:56.385Z,6.60
2023-01-30T21:40:41.812Z,6.32
2023-01-30T21:43:16.633Z,5.85
2023-01-30T21:45:46.271Z,5.13
2023-01-30T21:48:14.786Z,5.65
2023-01-30T21:50:43.162Z,4.85
2023-01-30T21:53:11.653Z,5.00
2023-01-30T21:55:40.263Z,5.60
2023-01-30T21:58:08.820Z,4.90
2023-01-30T22:00:37.670Z,5.53
2023-01-30T22:03:07.669Z,6.45
2023-01-30T22:05:36.754Z,6.00
2023-01-30T22:08:06.191Z,6.93
2023-01-30T22:10:34.501Z,7.00
2023-01-30T22:13:02.951Z,7.13
2023-01-30T22:15:31.206Z,8.10
2023-01-30T22:17:59.659Z,7.18
2023-01-30T22:20:29.288Z,6.85
2023-01-30T22:22:57.795Z,7.30
2023-01-30T22:25:26.098Z,6.75
2023-01-30T22:27:54.662Z,6.68
2023-01-30T22:30:23.027Z,7.47
2023-01-30T22:32:54.916Z,6.78
2023-01-30T22:35:23.367Z,6.75
2023-01-30T22:37:53.224Z,7.78
2023-01-30T22:40:21.426Z,9.30
2023-01-30T22:42:50.197Z,8.15
2023-01-30T22:45:18.864Z,6.47
2023-01-30T22:47:47.741Z,5.75
2023-01-30T22:50:16.059Z,5.72
2023-01-30T22:52:44.725Z,6.25
2023-01-30T22:55:14.454Z,4.82
2023-01-30T22:57:43.146Z,5.15
2023-01-30T23:00:12.358Z,4.45
2023-01-30T23:02:41.009Z,4.25
2023-01-30T23:05:09.615Z,4.40
2023-01-30T23:07:38.227Z,4.43
2023-01-30T23:10:06.981Z,4.05
2023-01-30T23:12:54.663Z,3.88
2023-01-30T23:15:22.985Z,4.30
2023-01-30T23:18:09.197Z,4.05
2023-01-30T23:20:38.048Z,3.20
2023-01-30T23:23:07.224Z,3.88
2023-01-30T23:25:35.545Z,3.63
2023-01-30T23:28:06.077Z,3.40
2023-01-30T23:30:34.397Z,4.03
2023-01-30T23:33:02.968Z,4.40
2023-01-30T23:35:31.164Z,3.97
2023-01-30T23:38:19.304Z,3.08
2023-01-30T23:40:48.623Z,4.40
2023-01-30T23:43:20.090Z,4.32
2023-01-30T23:45:48.435Z,3.80
2023-01-30T23:48:17.010Z,4.45
2023-01-30T23:50:45.240Z,4.28
2023-01-30T23:53:13.773Z,3.95
2023-01-30T23:55:42.336Z,4.13
2023-01-30T23:58:10.844Z,4.75
